createdAt,value
2017-11-03T00:01:25.172Z,15.60
2017-11-03T00:03:52.762Z,15.97
2017-11-03T00:06:20.496Z,15.87
2017-11-03T00:08:48.145Z,16.20
2017-11-03T00:11:15.745Z,16.20
2017-11-03T00:13:43.339Z,15.53
2017-11-03T00:16:10.935Z,15.87
2017-11-03T00:18:38.569Z,16.37
2017-11-03T00:21:06.178Z,16.00
2017-11-03T00:23:33.760Z,16.73
2017-11-03T00:26:02.109Z,15.80
2017-11-03T00:28:29.936Z,15.47
2017-11-03T00:30:57.516Z,17.77
2017-11-03T00:33:25.288Z,16.97
2017-11-03T00:35:52.875Z,15.73
2017-11-03T00:38:21.231Z,15.30
2017-11-03T00:40:48.904Z,15.00
2017-11-03T00:43:17.264Z,15.70
2017-11-03T00:45:44.908Z,14.83
2017-11-03T00:48:12.484Z,15.00
2017-11-03T00:50:40.081Z,15.00
2017-11-03T00:53:08.429Z,15.57
2017-11-03T00:55:36.062Z,14.20
2017-11-03T00:58:03.644Z,14.50
2017-11-03T01:00:31.235Z,15.53
2017-11-03T01:02:59.841Z,14.00
2017-11-03T01:05:27.418Z,15.23
2017-11-03T01:07:55.028Z,15.70
2017-11-03T01:10:23.364Z,15.50
2017-11-03T01:12:50.992Z,15.43
2017-11-03T01:15:18.599Z,14.47
2017-11-03T01:17:46.167Z,16.50
2017-11-03T01:20:13.751Z,16.03
2017-11-03T01:22:41.316Z,15.30
2017-11-03T01:25:08.948Z,15.10
2017-11-03T01:27:37.292Z,15.40
2017-11-03T01:30:04.851Z,15.40
2017-11-03T01:32:32.464Z,14.53
2017-11-03T01:35:00.035Z,15.90
2017-11-03T01:37:27.701Z,14.77
2017-11-03T01:39:55.271Z,15.20
2017-11-03T01:42:22.871Z,15.43
2017-11-03T01:44:50.523Z,16.40
2017-11-03T01:47:18.134Z,15.23
2017-11-03T01:49:45.712Z,17.00
2017-11-03T01:52:13.312Z,17.20
2017-11-03T01:54:41.024Z,16.13
2017-11-03T01:57:08.677Z,15.80
2017-11-03T01:59:36.374Z,16.37
2017-11-03T02:02:03.989Z,15.80
2017-11-03T02:04:31.587Z,15.30
2017-11-03T02:06:59.203Z,17.00
2017-11-03T02:09:26.767Z,16.30
2017-11-03T02:11:54.363Z,16.60
2017-11-03T02:14:21.943Z,16.90
2017-11-03T02:16:50.420Z,16.97
2017-11-03T02:19:18.055Z,16.50
2017-11-03T02:21:45.687Z,16.50
2017-11-03T02:24:13.278Z,17.50
2017-11-03T02:26:40.913Z,17.40
2017-11-03T02:29:08.539Z,16.70
2017-11-03T02:31:36.965Z,16.80
2017-11-03T02:34:04.535Z,17.20
2017-11-03T02:36:32.120Z,14.27
2017-11-03T02:38:59.793Z,15.60
2017-11-03T02:41:28.152Z,16.50
2017-11-03T02:43:55.731Z,16.10
2017-11-03T02:46:24.096Z,15.93
2017-11-03T02:48:52.472Z,16.33
2017-11-03T02:51:20.106Z,16.90
2017-11-03T02:53:47.668Z,16.10
2017-11-03T02:56:15.267Z,16.43
2017-11-03T02:58:43.603Z,15.37
2017-11-03T03:01:11.208Z,16.03
2017-11-03T03:03:39.549Z,15.53
2017-11-03T03:06:07.115Z,15.73
2017-11-03T03:08:34.719Z,16.70
2017-11-03T03:11:02.336Z,15.63
2017-11-03T03:13:31.583Z,16.50
2017-11-03T03:15:59.167Z,15.30
2017-11-03T03:18:26.760Z,15.63
2017-11-03T03:20:55.099Z,15.13
2017-11-03T03:23:22.843Z,16.23
2017-11-03T03:25:50.501Z,15.50
2017-11-03T03:28:18.244Z,15.43
2017-11-03T03:30:45.857Z,16.87
2017-11-03T03:33:13.424Z,16.23
2017-11-03T03:35:41.027Z,16.47
2017-11-03T03:38:08.599Z,16.50
2017-11-03T03:40:36.200Z,16.83
2017-11-03T03:43:03.767Z,16.40
2017-11-03T03:45:31.374Z,15.50
2017-11-03T03:47:58.976Z,15.83
2017-11-03T03:50:26.555Z,15.40
2017-11-03T03:52:55.073Z,15.57
2017-11-03T03:55:22.636Z,16.40
2017-11-03T03:57:50.244Z,17.13
2017-11-03T04:00:18.595Z,15.10
2017-11-03T04:02:46.329Z,15.33
2017-11-03T04:05:14.047Z,15.50
2017-11-03T04:07:41.611Z,15.80
2017-11-03T04:10:10.132Z,15.03
2017-11-03T04:12:37.705Z,17.83
2017-11-03T04:15:05.300Z,16.10
2017-11-03T04:17:32.864Z,16.63
2017-11-03T04:20:00.432Z,16.90
2017-11-03T04:22:28.786Z,16.03
2017-11-03T04:24:56.364Z,15.57
2017-11-03T04:27:24.735Z,16.00
2017-11-03T04:29:52.338Z,16.20
2017-11-03T04:32:19.928Z,15.83
2017-11-03T04:34:47.535Z,14.97
2017-11-03T04:37:15.237Z,15.50
2017-11-03T04:39:42.863Z,15.37
2017-11-03T04:42:10.640Z,16.33
2017-11-03T04:44:38.211Z,15.27
2017-11-03T04:47:05.818Z,15.90
2017-11-03T04:49:34.142Z,14.47
2017-11-03T04:52:01.794Z,16.40
2017-11-03T04:54:29.371Z,15.53
2017-11-03T04:56:56.983Z,16.80
2017-11-03T04:59:25.320Z,16.20
2017-11-03T05:01:52.949Z,15.87
2017-11-03T05:04:20.565Z,14.47
2017-11-03T05:06:48.903Z,14.50
2017-11-03T05:09:16.552Z,16.17
2017-11-03T05:11:44.155Z,15.50
2017-11-03T05:14:13.255Z,16.10
2017-11-03T05:16:40.821Z,14.23
2017-11-03T05:19:09.233Z,14.93
2017-11-03T05:21:36.821Z,17.00
2017-11-03T05:24:04.415Z,16.03
2017-11-03T05:26:32.765Z,16.20
2017-11-03T05:29:00.343Z,17.00
2017-11-03T05:31:28.704Z,18.00
2017-11-03T05:33:56.279Z,17.00
2017-11-03T05:36:23.893Z,14.50
2017-11-03T05:38:51.604Z,16.20
2017-11-03T05:41:19.951Z,15.10
2017-11-03T05:43:47.580Z,14.87
2017-11-03T05:46:15.139Z,15.73
2017-11-03T05:48:42.903Z,16.13
2017-11-03T05:51:10.471Z,16.27
2017-11-03T05:53:38.071Z,15.17
2017-11-03T05:56:05.679Z,16.90
2017-11-03T05:58:33.287Z,17.37
2017-11-03T06:01:00.884Z,16.40
2017-11-03T06:03:28.471Z,16.50
2017-11-03T06:05:56.080Z,16.27
2017-11-03T06:08:24.415Z,17.60
2017-11-03T06:10:52.052Z,17.93
2017-11-03T06:13:19.638Z,16.67
2017-11-03T06:15:47.211Z,18.73
2017-11-03T06:18:14.932Z,18.53
2017-11-03T06:20:42.593Z,19.20
2017-11-03T06:23:10.200Z,19.10
2017-11-03T06:25:37.810Z,19.33
2017-11-03T06:28:05.388Z,20.27
2017-11-03T06:30:33.000Z,22.03
2017-11-03T06:33:01.611Z,22.50
2017-11-03T06:35:29.323Z,21.67
2017-11-03T06:37:57.756Z,18.90
2017-11-03T06:40:25.368Z,18.33
2017-11-03T06:42:53.703Z,20.43
2017-11-03T06:45:21.561Z,19.73
2017-11-03T06:47:49.164Z,21.30
2017-11-03T06:50:16.757Z,22.37
2017-11-03T06:52:44.523Z,21.87
2017-11-03T06:55:12.102Z,21.53
2017-11-03T06:57:39.711Z,22.13
2017-11-03T07:00:08.133Z,21.80
2017-11-03T07:02:35.762Z,22.03
2017-11-03T07:05:04.125Z,23.63
2017-11-03T07:07:32.473Z,23.60
2017-11-03T07:10:00.227Z,23.50
2017-11-03T07:12:27.800Z,23.33
2017-11-03T07:14:55.388Z,24.07
2017-11-03T07:17:23.749Z,23.73
2017-11-03T07:19:52.085Z,23.93
2017-11-03T07:22:19.676Z,22.77
2017-11-03T07:24:47.248Z,25.50
2017-11-03T07:27:14.904Z,25.90
2017-11-03T07:29:42.512Z,29.17
2017-11-03T07:32:10.175Z,27.90
2017-11-03T07:34:37.835Z,25.37
2017-11-03T07:37:05.404Z,25.77
2017-11-03T07:39:33.003Z,25.93
2017-11-03T07:42:00.612Z,26.37
2017-11-03T07:44:28.235Z,25.60
2017-11-03T07:46:56.572Z,26.20
2017-11-03T07:49:24.187Z,26.30
2017-11-03T07:51:51.768Z,25.20
2017-11-03T07:54:19.352Z,23.97
2017-11-03T07:56:46.958Z,28.50
2017-11-03T07:59:15.305Z,28.47
2017-11-03T08:01:43.007Z,26.20
2017-11-03T08:04:10.576Z,29.00
2017-11-03T08:06:38.183Z,25.53
2017-11-03T08:09:05.790Z,24.80
2017-11-03T08:11:33.367Z,24.93
2017-11-03T08:14:00.987Z,28.07
2017-11-03T08:16:29.319Z,27.00
2017-11-03T08:18:56.946Z,24.77
2017-11-03T08:21:24.532Z,24.97
2017-11-03T08:23:52.196Z,25.07
2017-11-03T08:26:19.811Z,26.67
2017-11-03T08:28:48.140Z,27.03
2017-11-03T08:31:15.736Z,26.87
2017-11-03T08:33:44.064Z,26.10
2017-11-03T08:36:11.848Z,27.57
2017-11-03T08:38:40.306Z,27.97
2017-11-03T08:41:07.887Z,28.10
2017-11-03T08:43:35.493Z,25.70
2017-11-03T08:46:03.083Z,24.27
2017-11-03T08:48:30.693Z,26.77
2017-11-03T08:50:59.015Z,25.83
2017-11-03T08:53:26.612Z,26.07
2017-11-03T08:55:54.218Z,26.77
2017-11-03T08:58:21.834Z,26.20
2017-11-03T09:00:50.199Z,26.70
2017-11-03T09:03:17.795Z,25.97
2017-11-03T09:05:45.586Z,28.93
2017-11-03T09:08:13.147Z,28.43
2017-11-03T09:10:40.736Z,25.50
2017-11-03T09:13:08.370Z,27.40
2017-11-03T09:15:35.965Z,27.90
2017-11-03T09:18:05.109Z,26.07
2017-11-03T09:20:32.776Z,22.80
2017-11-03T09:23:00.462Z,23.97
2017-11-03T09:25:28.090Z,23.70
2017-11-03T09:27:55.740Z,22.20
2017-11-03T09:30:23.308Z,23.80
2017-11-03T09:32:50.886Z,23.10
2017-11-03T09:35:19.295Z,22.30
2017-11-03T09:37:48.367Z,22.63
2017-11-03T09:40:16.004Z,24.07
2017-11-03T09:42:43.660Z,22.27
2017-11-03T09:45:11.236Z,21.60
2017-11-03T09:47:38.831Z,21.03
2017-11-03T09:50:06.436Z,24.50
2017-11-03T09:52:34.096Z,24.07
2017-11-03T09:55:01.669Z,22.90
2017-11-03T09:57:29.280Z,22.17
2017-11-03T09:59:57.609Z,22.20
2017-11-03T10:02:25.177Z,23.73
2017-11-03T10:04:52.799Z,24.97
2017-11-03T10:07:20.533Z,22.60
2017-11-03T10:09:48.905Z,20.27
2017-11-03T10:12:16.485Z,20.23
2017-11-03T10:14:44.823Z,18.83
2017-11-03T10:17:12.545Z,19.67
2017-11-03T10:19:40.111Z,20.77
2017-11-03T10:22:07.700Z,19.13
2017-11-03T10:24:35.631Z,21.43
2017-11-03T10:27:03.251Z,19.27
2017-11-03T10:29:30.981Z,20.47
2017-11-03T10:31:58.715Z,20.60
2017-11-03T10:34:26.313Z,21.83
2017-11-03T10:36:53.921Z,23.07
2017-11-03T10:39:21.651Z,22.47
2017-11-03T10:41:50.000Z,22.20
2017-11-03T10:44:17.572Z,19.70
2017-11-03T10:46:45.189Z,21.30
2017-11-03T10:49:12.755Z,18.57
2017-11-03T10:51:40.363Z,20.63
2017-11-03T10:54:07.956Z,19.83
2017-11-03T10:56:35.523Z,21.23
2017-11-03T10:59:03.110Z,20.37
2017-11-03T11:01:30.815Z,19.60
2017-11-03T11:03:59.279Z,19.67
2017-11-03T11:06:26.846Z,22.87
2017-11-03T11:08:54.449Z,21.70
2017-11-03T11:11:22.100Z,19.90
2017-11-03T11:13:49.766Z,18.87
2017-11-03T11:16:17.328Z,19.80
2017-11-03T11:18:44.919Z,20.53
2017-11-03T11:21:12.504Z,20.27
2017-11-03T11:23:40.831Z,19.77
2017-11-03T11:26:08.517Z,20.70
2017-11-03T11:28:36.080Z,19.87
2017-11-03T11:31:03.676Z,18.43
2017-11-03T11:33:32.008Z,19.23
2017-11-03T11:35:59.567Z,20.70
2017-11-03T11:38:27.188Z,20.03
2017-11-03T11:40:54.850Z,18.70
2017-11-03T11:43:22.446Z,16.73
2017-11-03T11:45:50.023Z,18.00
2017-11-03T11:48:17.604Z,15.23
2017-11-03T11:50:45.967Z,15.83
2017-11-03T11:53:14.380Z,16.90
2017-11-03T11:55:41.974Z,14.77
2017-11-03T11:58:09.555Z,15.80
2017-11-03T12:00:37.927Z,16.20
2017-11-03T12:03:05.539Z,14.50
2017-11-03T12:05:33.217Z,14.30
2017-11-03T12:08:00.822Z,14.80
2017-11-03T12:10:29.344Z,15.93
2017-11-03T12:12:56.931Z,17.63
2017-11-03T12:15:24.531Z,20.27
2017-11-03T12:17:52.871Z,18.80
2017-11-03T12:20:20.472Z,18.40
2017-11-03T12:22:48.823Z,18.10
2017-11-03T12:25:16.668Z,18.83
2017-11-03T12:27:44.271Z,17.30
2017-11-03T12:30:12.604Z,16.93
2017-11-03T12:32:40.197Z,17.37
2017-11-03T12:35:08.607Z,16.00
2017-11-03T12:37:36.377Z,14.13
2017-11-03T12:40:03.953Z,13.87
2017-11-03T12:42:31.643Z,14.00
2017-11-03T12:44:59.249Z,15.27
2017-11-03T12:47:27.073Z,13.87
2017-11-03T12:49:55.603Z,15.70
2017-11-03T12:52:23.191Z,13.23
2017-11-03T12:54:50.811Z,12.43
2017-11-03T12:57:18.411Z,15.03
2017-11-03T12:59:45.999Z,15.87
2017-11-03T13:02:14.492Z,16.73
2017-11-03T13:04:42.072Z,16.23
2017-11-03T13:07:09.696Z,16.30
2017-11-03T13:09:38.027Z,14.27
2017-11-03T13:12:05.630Z,15.60
2017-11-03T13:14:33.972Z,15.87
2017-11-03T13:17:01.598Z,14.30
2017-11-03T13:19:29.200Z,14.03
2017-11-03T13:21:56.795Z,14.07
2017-11-03T13:24:25.229Z,14.23
2017-11-03T13:26:52.959Z,13.90
2017-11-03T13:29:20.562Z,12.73
2017-11-03T13:31:48.997Z,12.60
2017-11-03T13:34:16.592Z,13.50
2017-11-03T13:36:44.191Z,13.00
2017-11-03T13:39:12.706Z,14.73
2017-11-03T13:41:40.363Z,14.60
2017-11-03T13:44:08.017Z,13.53
2017-11-03T13:46:35.643Z,13.27
2017-11-03T13:49:04.172Z,14.87
2017-11-03T13:51:31.767Z,14.90
2017-11-03T13:54:00.148Z,13.70
2017-11-03T13:56:27.877Z,13.60
2017-11-03T13:58:55.457Z,13.70
2017-11-03T14:01:23.079Z,15.17
2017-11-03T14:03:50.703Z,15.13
2017-11-03T14:06:19.072Z,13.03
2017-11-03T14:08:46.684Z,11.70
2017-11-03T14:11:14.280Z,11.77
2017-11-03T14:13:42.003Z,11.50
2017-11-03T14:16:09.653Z,11.17
2017-11-03T14:18:37.235Z,10.87
2017-11-03T14:21:04.836Z,9.93
2017-11-03T14:23:33.248Z,10.60
2017-11-03T14:26:00.852Z,10.90
2017-11-03T14:28:28.465Z,10.20
2017-11-03T14:30:56.239Z,8.60
2017-11-03T14:33:23.824Z,8.77
2017-11-03T14:35:51.472Z,8.90
2017-11-03T14:38:19.079Z,8.60
2017-11-03T14:40:47.513Z,10.23
2017-11-03T14:43:15.082Z,9.50
2017-11-03T14:45:42.675Z,8.43
2017-11-03T14:48:11.007Z,9.40
2017-11-03T14:50:38.672Z,8.63
2017-11-03T14:53:06.295Z,8.60
2017-11-03T14:55:33.920Z,8.00
2017-11-03T14:58:01.550Z,8.10
2017-11-03T15:00:29.113Z,9.50
2017-11-03T15:02:56.740Z,8.47
2017-11-03T15:05:24.305Z,8.50
2017-11-03T15:07:52.105Z,7.80
2017-11-03T15:10:19.671Z,8.83
2017-11-03T15:12:48.030Z,8.70
2017-11-03T15:15:15.612Z,8.50
2017-11-03T15:17:44.015Z,8.77
2017-11-03T15:20:12.363Z,8.67
2017-11-03T15:22:39.919Z,8.50
2017-11-03T15:25:07.511Z,8.53
2017-11-03T15:27:35.101Z,8.80
2017-11-03T15:30:02.749Z,8.20
2017-11-03T15:32:30.324Z,8.57
2017-11-03T15:34:57.880Z,9.50
2017-11-03T15:37:25.564Z,7.60
2017-11-03T15:39:53.183Z,9.27
2017-11-03T15:42:20.787Z,8.30
2017-11-03T15:44:48.483Z,8.47
2017-11-03T15:47:16.868Z,8.70
2017-11-03T15:49:44.550Z,8.87
2017-11-03T15:52:12.120Z,9.37
2017-11-03T15:54:39.761Z,8.13
2017-11-03T15:57:07.348Z,8.67
2017-11-03T15:59:34.940Z,9.13
2017-11-03T16:02:02.540Z,9.00
2017-11-03T16:04:30.116Z,9.07
2017-11-03T16:06:57.721Z,9.40
2017-11-03T16:09:26.061Z,8.90
2017-11-03T16:11:53.671Z,9.77
2017-11-03T16:14:22.071Z,9.73
2017-11-03T16:16:49.672Z,9.87
2017-11-03T16:19:17.280Z,9.30
2017-11-03T16:21:44.884Z,10.20
2017-11-03T16:24:12.515Z,9.73
2017-11-03T16:26:40.091Z,9.80
2017-11-03T16:29:07.807Z,9.67
2017-11-03T16:31:36.145Z,12.10
2017-11-03T16:34:03.759Z,11.40
2017-11-03T16:36:31.376Z,10.80
2017-11-03T16:38:58.948Z,11.27
2017-11-03T16:41:27.425Z,11.03
2017-11-03T16:43:55.020Z,10.83
2017-11-03T16:46:22.600Z,11.10
2017-11-03T16:48:50.201Z,12.20
2017-11-03T16:51:17.772Z,11.10
2017-11-03T16:53:46.300Z,11.30
2017-11-03T16:56:13.868Z,12.40
2017-11-03T16:58:41.557Z,13.40
2017-11-03T17:01:09.888Z,12.90
2017-11-03T17:03:37.537Z,14.50
2017-11-03T17:06:05.131Z,12.83
2017-11-03T17:08:32.723Z,14.20
2017-11-03T17:11:01.115Z,14.80
2017-11-03T17:13:28.705Z,14.90
2017-11-03T17:15:56.311Z,13.23
2017-11-03T17:18:24.043Z,14.43
2017-11-03T17:20:51.641Z,13.70
2017-11-03T17:23:20.016Z,14.47
2017-11-03T17:25:48.372Z,13.87
2017-11-03T17:28:16.006Z,15.50
2017-11-03T17:30:43.646Z,17.03
2017-11-03T17:33:11.251Z,15.07
2017-11-03T17:35:38.981Z,14.63
2017-11-03T17:38:06.563Z,14.20
2017-11-03T17:40:34.259Z,14.00
2017-11-03T17:43:02.667Z,13.27
2017-11-03T17:45:30.332Z,11.30
2017-11-03T17:47:57.899Z,12.20
2017-11-03T17:50:25.479Z,12.37
2017-11-03T17:52:53.050Z,12.23
2017-11-03T17:55:20.657Z,12.33
2017-11-03T17:57:48.320Z,13.20
2017-11-03T18:00:15.887Z,11.40
2017-11-03T18:02:43.499Z,13.43
2017-11-03T18:05:11.844Z,11.30
2017-11-03T18:07:39.704Z,11.53
2017-11-03T18:10:07.291Z,12.70
2017-11-03T18:12:34.923Z,11.30
2017-11-03T18:15:02.562Z,12.40
2017-11-03T18:17:30.140Z,11.00
2017-11-03T18:19:57.749Z,9.93
2017-11-03T18:22:26.090Z,11.70
2017-11-03T18:24:53.666Z,10.70
2017-11-03T18:27:21.375Z,11.17
2017-11-03T18:29:48.948Z,11.77
2017-11-03T18:32:16.725Z,10.30
2017-11-03T18:34:44.311Z,11.43
2017-11-03T18:37:11.881Z,10.87
2017-11-03T18:39:40.358Z,11.60
2017-11-03T18:42:08.710Z,10.80
2017-11-03T18:44:36.307Z,13.30
2017-11-03T18:47:04.732Z,9.50
2017-11-03T18:49:32.359Z,10.10
2017-11-03T18:51:59.948Z,9.87
2017-11-03T18:54:27.536Z,12.17
2017-11-03T18:56:55.179Z,11.93
2017-11-03T18:59:22.773Z,13.00
2017-11-03T19:01:51.124Z,13.00
2017-11-03T19:04:18.740Z,11.67
2017-11-03T19:06:46.351Z,12.10
2017-11-03T19:09:13.947Z,12.00
2017-11-03T19:11:41.532Z,13.07
2017-11-03T19:14:09.169Z,12.33
2017-11-03T19:16:36.759Z,11.20
2017-11-03T19:19:04.394Z,12.47
2017-11-03T19:21:32.023Z,11.83
2017-11-03T19:24:00.363Z,11.10
2017-11-03T19:26:27.991Z,11.30
2017-11-03T19:28:55.621Z,13.03
2017-11-03T19:31:23.989Z,12.70
2017-11-03T19:33:52.352Z,12.73
2017-11-03T19:36:19.984Z,13.50
2017-11-03T19:38:47.626Z,13.00
2017-11-03T19:41:15.223Z,12.77
2017-11-03T19:43:42.832Z,13.93
2017-11-03T19:46:10.504Z,14.43
2017-11-03T19:48:38.120Z,13.90
2017-11-03T19:51:05.692Z,15.63
2017-11-03T19:53:34.070Z,16.63
2017-11-03T19:56:02.395Z,16.03
2017-11-03T19:58:30.038Z,14.97
2017-11-03T20:00:57.655Z,16.23
2017-11-03T20:03:26.030Z,15.50
2017-11-03T20:05:53.642Z,16.40
2017-11-03T20:08:21.293Z,15.47
2017-11-03T20:10:48.869Z,16.20
2017-11-03T20:13:16.472Z,15.60
2017-11-03T20:15:44.844Z,15.00
2017-11-03T20:18:13.258Z,16.33
2017-11-03T20:20:40.880Z,16.87
2017-11-03T20:23:09.301Z,16.37
2017-11-03T20:25:36.944Z,15.90
2017-11-03T20:28:04.554Z,15.20
2017-11-03T20:30:32.180Z,14.90
2017-11-03T20:32:59.744Z,14.43
2017-11-03T20:35:27.316Z,15.07
2017-11-03T20:37:54.930Z,13.70
2017-11-03T20:40:23.336Z,13.40
2017-11-03T20:42:50.943Z,13.77
2017-11-03T20:45:19.271Z,14.00
2017-11-03T20:47:46.884Z,15.07
2017-11-03T20:50:14.545Z,14.43
2017-11-03T20:52:42.130Z,14.33
2017-11-03T20:55:09.756Z,14.10
2017-11-03T20:57:37.336Z,15.00
2017-11-03T21:00:05.681Z,15.87
2017-11-03T21:02:33.303Z,15.63
2017-11-03T21:05:00.961Z,15.80
2017-11-03T21:07:28.576Z,15.77
2017-11-03T21:09:56.196Z,16.40
2017-11-03T21:12:23.821Z,14.07
2017-11-03T21:14:51.442Z,15.30
2017-11-03T21:17:19.060Z,14.90
2017-11-03T21:19:46.665Z,16.93
2017-11-03T21:22:14.381Z,14.77
2017-11-03T21:24:42.007Z,15.30
2017-11-03T21:27:10.365Z,16.00
2017-11-03T21:29:38.082Z,16.57
2017-11-03T21:32:05.672Z,15.67
2017-11-03T21:34:33.267Z,16.03
2017-11-03T21:37:01.717Z,16.10
2017-11-03T21:39:29.324Z,15.90
2017-11-03T21:41:56.947Z,16.03
2017-11-03T21:44:24.532Z,16.63
2017-11-03T21:46:52.887Z,15.80
2017-11-03T21:49:20.712Z,14.97
2017-11-03T21:51:48.335Z,18.10
2017-11-03T21:54:16.673Z,16.67
2017-11-03T21:56:44.269Z,16.77
2017-11-03T21:59:12.007Z,15.50
2017-11-03T22:01:39.716Z,17.30
2017-11-03T22:04:07.379Z,18.13
2017-11-03T22:06:35.079Z,17.67
2017-11-03T22:09:02.739Z,17.07
2017-11-03T22:11:30.470Z,18.90
2017-11-03T22:13:58.098Z,17.47
2017-11-03T22:16:26.479Z,18.47
2017-11-03T22:18:54.076Z,18.47
2017-11-03T22:21:21.724Z,18.87
2017-11-03T22:23:49.379Z,19.73
2017-11-03T22:26:17.024Z,18.93
2017-11-03T22:28:44.593Z,18.70
2017-11-03T22:31:12.263Z,19.00
2017-11-03T22:33:39.987Z,18.60
2017-11-03T22:36:08.380Z,18.93
2017-11-03T22:38:35.980Z,18.10
2017-11-03T22:41:03.544Z,18.80
2017-11-03T22:43:31.178Z,18.60
2017-11-03T22:45:58.833Z,17.47
2017-11-03T22:48:26.496Z,19.17
2017-11-03T22:50:54.119Z,19.23
2017-11-03T22:53:22.499Z,19.83
2017-11-03T22:55:50.872Z,19.17
2017-11-03T22:58:19.290Z,19.30
2017-11-03T23:00:46.911Z,19.90
2017-11-03T23:03:15.273Z,19.10
2017-11-03T23:05:42.944Z,18.17
2017-11-03T23:08:10.559Z,18.70
2017-11-03T23:10:38.224Z,18.00
2017-11-03T23:13:05.865Z,17.10
2017-11-03T23:15:33.530Z,18.77
2017-11-03T23:18:01.190Z,17.73
2017-11-03T23:20:28.848Z,18.57
2017-11-03T23:22:56.422Z,19.73
2017-11-03T23:25:24.096Z,18.93
2017-11-03T23:27:51.751Z,19.30
2017-11-03T23:30:19.327Z,20.43
2017-11-03T23:32:47.057Z,20.00
2017-11-03T23:35:14.667Z,20.17
2017-11-03T23:37:43.086Z,18.90
2017-11-03T23:40:10.669Z,19.83
2017-11-03T23:42:38.306Z,20.90
2017-11-03T23:45:05.916Z,20.70
2017-11-03T23:47:33.495Z,18.73
2017-11-03T23:50:01.864Z,20.90
2017-11-03T23:52:30.216Z,19.87
2017-11-03T23:54:57.784Z,21.63
2017-11-03T23:57:25.405Z,20.03
2017-11-03T23:59:52.982Z,21.20
